sensor_id;sensor_type;location;lat;lon;timestamp;P1;durP1;ratioP1;P2;durP2;ratioP2
68178;SDS011;54998;42.656;23.382;2022-11-15T00:00:03;41.97;;;20.77;;
68178;SDS011;54998;42.656;23.382;2022-11-15T00:02:29;36.03;;;17.23;;
68178;SDS011;54998;42.656;23.382;2022-11-15T00:04:54;34.60;;;16.38;;
68178;SDS011;54998;42.656;23.382;2022-11-15T00:07:19;35.90;;;17.08;;
68178;SDS011;54998;42.656;23.382;2022-11-15T00:09:45;36.00;;;17.23;;
68178;SDS011;54998;42.656;23.382;2022-11-15T00:12:10;35.58;;;16.83;;
68178;SDS011;54998;42.656;23.382;2022-11-15T00:14:35;32.92;;;15.40;;
68178;SDS011;54998;42.656;23.382;2022-11-15T00:17:01;31.10;;;15.23;;
68178;SDS011;54998;42.656;23.382;2022-11-15T00:19:26;31.50;;;14.70;;
68178;SDS011;54998;42.656;23.382;2022-11-15T00:21:52;31.48;;;13.82;;
68178;SDS011;54998;42.656;23.382;2022-11-15T00:24:17;29.80;;;14.40;;
68178;SDS011;54998;42.656;23.382;2022-11-15T00:26:42;34.40;;;15.45;;
68178;SDS011;54998;42.656;23.382;2022-11-15T00:29:08;32.00;;;14.52;;
68178;SDS011;54998;42.656;23.382;2022-11-15T00:31:33;36.40;;;15.40;;
68178;SDS011;54998;42.656;23.382;2022-11-15T00:33:58;38.25;;;19.35;;
68178;SDS011;54998;42.656;23.382;2022-11-15T00:36:24;54.92;;;23.83;;
68178;SDS011;54998;42.656;23.382;2022-11-15T00:38:49;55.63;;;26.30;;
68178;SDS011;54998;42.656;23.382;2022-11-15T00:41:15;49.95;;;22.40;;
68178;SDS011;54998;42.656;23.382;2022-11-15T00:43:40;62.08;;;26.38;;
68178;SDS011;54998;42.656;23.382;2022-11-15T00:46:08;68.45;;;29.17;;
68178;SDS011;54998;42.656;23.382;2022-11-15T00:48:35;66.00;;;29.23;;
68178;SDS011;54998;42.656;23.382;2022-11-15T00:51:01;68.55;;;29.55;;
68178;SDS011;54998;42.656;23.382;2022-11-15T00:53:26;61.17;;;28.05;;
68178;SDS011;54998;42.656;23.382;2022-11-15T00:55:51;69.32;;;31.58;;
68178;SDS011;54998;42.656;23.382;2022-11-15T00:58:17;74.28;;;29.48;;
68178;SDS011;54998;42.656;23.382;2022-11-15T01:00:42;78.80;;;34.65;;
68178;SDS011;54998;42.656;23.382;2022-11-15T01:03:08;68.70;;;32.95;;
68178;SDS011;54998;42.656;23.382;2022-11-15T01:05:33;82.00;;;34.00;;
68178;SDS011;54998;42.656;23.382;2022-11-15T01:07:59;80.80;;;35.25;;
68178;SDS011;54998;42.656;23.382;2022-11-15T01:10:24;86.60;;;38.72;;
68178;SDS011;54998;42.656;23.382;2022-11-15T01:12:50;81.03;;;34.38;;
68178;SDS011;54998;42.656;23.382;2022-11-15T01:15:41;80.18;;;36.10;;
68178;SDS011;54998;42.656;23.382;2022-11-15T01:18:24;88.18;;;37.35;;
68178;SDS011;54998;42.656;23.382;2022-11-15T01:20:49;86.75;;;39.33;;
68178;SDS011;54998;42.656;23.382;2022-11-15T01:23:15;90.00;;;40.83;;
68178;SDS011;54998;42.656;23.382;2022-11-15T01:25:40;92.90;;;42.72;;
68178;SDS011;54998;42.656;23.382;2022-11-15T01:28:06;95.55;;;43.97;;
68178;SDS011;54998;42.656;23.382;2022-11-15T01:30:31;103.85;;;43.05;;
68178;SDS011;54998;42.656;23.382;2022-11-15T01:32:57;103.55;;;44.42;;
68178;SDS011;54998;42.656;23.382;2022-11-15T01:35:22;101.95;;;43.85;;
68178;SDS011;54998;42.656;23.382;2022-11-15T01:37:48;93.25;;;41.75;;
68178;SDS011;54998;42.656;23.382;2022-11-15T01:40:13;98.50;;;42.90;;
68178;SDS011;54998;42.656;23.382;2022-11-15T01:42:38;96.72;;;41.15;;
68178;SDS011;54998;42.656;23.382;2022-11-15T01:45:04;104.75;;;44.95;;
68178;SDS011;54998;42.656;23.382;2022-11-15T01:47:31;98.75;;;43.85;;
68178;SDS011;54998;42.656;23.382;2022-11-15T01:50:01;106.40;;;46.53;;
68178;SDS011;54998;42.656;23.382;2022-11-15T01:52:30;108.57;;;49.17;;
68178;SDS011;54998;42.656;23.382;2022-11-15T01:55:14;101.03;;;47.67;;
68178;SDS011;54998;42.656;23.382;2022-11-15T01:57:44;107.53;;;47.45;;
68178;SDS011;54998;42.656;23.382;2022-11-15T02:00:12;100.78;;;42.67;;
68178;SDS011;54998;42.656;23.382;2022-11-15T02:02:39;100.10;;;42.75;;
68178;SDS011;54998;42.656;23.382;2022-11-15T02:05:05;92.40;;;42.72;;
68178;SDS011;54998;42.656;23.382;2022-11-15T02:07:31;101.32;;;43.72;;
68178;SDS011;54998;42.656;23.382;2022-11-15T02:09:59;93.63;;;41.45;;
68178;SDS011;54998;42.656;23.382;2022-11-15T02:12:38;96.40;;;39.95;;
68178;SDS011;54998;42.656;23.382;2022-11-15T02:15:04;92.70;;;39.90;;
68178;SDS011;54998;42.656;23.382;2022-11-15T02:32:07;87.07;;;37.53;;
68178;SDS011;54998;42.656;23.382;2022-11-15T02:45:11;94.22;;;42.30;;
68178;SDS011;54998;42.656;23.382;2022-11-15T02:47:43;99.18;;;42.45;;
68178;SDS011;54998;42.656;23.382;2022-11-15T02:50:12;101.97;;;43.13;;
68178;SDS011;54998;42.656;23.382;2022-11-15T02:52:41;119.47;;;54.13;;
68178;SDS011;54998;42.656;23.382;2022-11-15T02:55:29;104.28;;;48.83;;
68178;SDS011;54998;42.656;23.382;2022-11-15T03:09:37;120.13;;;55.78;;
68178;SDS011;54998;42.656;23.382;2022-11-15T03:12:16;120.63;;;54.35;;
68178;SDS011;54998;42.656;23.382;2022-11-15T03:14:52;113.38;;;53.97;;
68178;SDS011;54998;42.656;23.382;2022-11-15T03:17:29;118.40;;;54.10;;
68178;SDS011;54998;42.656;23.382;2022-11-15T03:19:58;122.65;;;57.13;;
68178;SDS011;54998;42.656;23.382;2022-11-15T03:22:26;118.13;;;53.97;;
68178;SDS011;54998;42.656;23.382;2022-11-15T03:24:59;114.90;;;53.03;;
68178;SDS011;54998;42.656;23.382;2022-11-15T03:27:31;109.18;;;51.75;;
68178;SDS011;54998;42.656;23.382;2022-11-15T03:30:02;106.35;;;50.10;;
68178;SDS011;54998;42.656;23.382;2022-11-15T03:32:32;103.85;;;48.70;;
68178;SDS011;54998;42.656;23.382;2022-11-15T03:35:12;99.95;;;47.65;;
68178;SDS011;54998;42.656;23.382;2022-11-15T03:37:48;66.35;;;32.40;;
68178;SDS011;54998;42.656;23.382;2022-11-15T03:40:27;83.90;;;40.67;;
68178;SDS011;54998;42.656;23.382;2022-11-15T03:46:07;58.13;;;28.40;;
68178;SDS011;54998;42.656;23.382;2022-11-15T03:49:00;69.65;;;34.22;;
68178;SDS011;54998;42.656;23.382;2022-11-15T03:51:42;46.80;;;25.08;;
68178;SDS011;54998;42.656;23.382;2022-11-15T03:54:07;54.15;;;26.65;;
68178;SDS011;54998;42.656;23.382;2022-11-15T03:56:33;45.58;;;20.73;;
68178;SDS011;54998;42.656;23.382;2022-11-15T03:58:58;43.17;;;22.08;;
68178;SDS011;54998;42.656;23.382;2022-11-15T04:01:24;57.60;;;28.98;;
68178;SDS011;54998;42.656;23.382;2022-11-15T04:03:49;58.75;;;24.90;;
68178;SDS011;54998;42.656;23.382;2022-11-15T04:06:15;60.33;;;27.95;;
68178;SDS011;54998;42.656;23.382;2022-11-15T04:08:40;63.28;;;31.30;;
68178;SDS011;54998;42.656;23.382;2022-11-15T04:11:05;70.85;;;25.38;;
68178;SDS011;54998;42.656;23.382;2022-11-15T04:13:31;69.30;;;30.27;;
68178;SDS011;54998;42.656;23.382;2022-11-15T04:15:56;66.38;;;28.27;;
68178;SDS011;54998;42.656;23.382;2022-11-15T04:18:21;91.38;;;32.05;;
68178;SDS011;54998;42.656;23.382;2022-11-15T04:20:47;107.43;;;28.58;;
68178;SDS011;54998;42.656;23.382;2022-11-15T04:23:31;128.35;;;27.38;;
68178;SDS011;54998;42.656;23.382;2022-11-15T04:26:16;84.20;;;28.20;;
68178;SDS011;54998;42.656;23.382;2022-11-15T04:28:43;85.47;;;29.83;;
68178;SDS011;54998;42.656;23.382;2022-11-15T04:31:28;97.35;;;30.60;;
68178;SDS011;54998;42.656;23.382;2022-11-15T04:33:53;109.57;;;30.35;;
68178;SDS011;54998;42.656;23.382;2022-11-15T04:36:19;107.30;;;31.25;;
68178;SDS011;54998;42.656;23.382;2022-11-15T04:39:04;115.60;;;31.38;;
68178;SDS011;54998;42.656;23.382;2022-11-15T04:41:30;126.97;;;32.35;;
68178;SDS011;54998;42.656;23.382;2022-11-15T04:43:55;119.13;;;32.55;;
68178;SDS011;54998;42.656;23.382;2022-11-15T04:46:21;131.07;;;30.65;;
68178;SDS011;54998;42.656;23.382;2022-11-15T04:48:47;95.07;;;31.30;;
68178;SDS011;54998;42.656;23.382;2022-11-15T04:51:12;89.25;;;30.77;;
68178;SDS011;54998;42.656;23.382;2022-11-15T04:53:37;85.78;;;32.35;;
68178;SDS011;54998;42.656;23.382;2022-11-15T04:56:03;82.03;;;28.75;;
68178;SDS011;54998;42.656;23.382;2022-11-15T04:58:28;77.22;;;29.70;;
68178;SDS011;54998;42.656;23.382;2022-11-15T05:00:54;80.28;;;30.35;;
68178;SDS011;54998;42.656;23.382;2022-11-15T05:03:19;100.38;;;22.20;;
68178;SDS011;54998;42.656;23.382;2022-11-15T05:06:03;99.22;;;24.65;;
68178;SDS011;54998;42.656;23.382;2022-11-15T05:08:29;85.20;;;24.35;;
68178;SDS011;54998;42.656;23.382;2022-11-15T05:10:54;90.07;;;23.52;;
68178;SDS011;54998;42.656;23.382;2022-11-15T05:13:19;86.28;;;19.02;;
68178;SDS011;54998;42.656;23.382;2022-11-15T05:15:45;128.88;;;23.40;;
68178;SDS011;54998;42.656;23.382;2022-11-15T05:18:10;72.45;;;16.80;;
68178;SDS011;54998;42.656;23.382;2022-11-15T05:20:35;88.68;;;16.95;;
68178;SDS011;54998;42.656;23.382;2022-11-15T05:23:01;91.57;;;16.30;;
68178;SDS011;54998;42.656;23.382;2022-11-15T05:25:26;74.03;;;19.73;;
68178;SDS011;54998;42.656;23.382;2022-11-15T05:27:52;85.53;;;18.38;;
68178;SDS011;54998;42.656;23.382;2022-11-15T05:30:17;86.68;;;21.25;;
68178;SDS011;54998;42.656;23.382;2022-11-15T05:32:43;96.57;;;18.23;;
68178;SDS011;54998;42.656;23.382;2022-11-15T05:35:11;78.18;;;19.13;;
68178;SDS011;54998;42.656;23.382;2022-11-15T05:37:40;84.97;;;18.58;;
68178;SDS011;54998;42.656;23.382;2022-11-15T05:40:06;89.43;;;19.48;;
68178;SDS011;54998;42.656;23.382;2022-11-15T05:42:31;77.22;;;18.55;;
68178;SDS011;54998;42.656;23.382;2022-11-15T05:44:57;73.50;;;18.40;;
68178;SDS011;54998;42.656;23.382;2022-11-15T05:47:24;82.95;;;18.35;;
68178;SDS011;54998;42.656;23.382;2022-11-15T05:49:52;98.95;;;19.05;;
68178;SDS011;54998;42.656;23.382;2022-11-15T05:52:20;62.58;;;17.92;;
68178;SDS011;54998;42.656;23.382;2022-11-15T05:54:49;92.97;;;19.20;;
68178;SDS011;54998;42.656;23.382;2022-11-15T05:57:16;70.80;;;22.50;;
68178;SDS011;54998;42.656;23.382;2022-11-15T05:59:42;66.70;;;15.07;;
68178;SDS011;54998;42.656;23.382;2022-11-15T06:02:08;60.30;;;15.38;;
68178;SDS011;54998;42.656;23.382;2022-11-15T06:04:35;44.17;;;15.13;;
68178;SDS011;54998;42.656;23.382;2022-11-15T06:07:00;42.63;;;15.93;;
68178;SDS011;54998;42.656;23.382;2022-11-15T06:09:25;40.80;;;14.50;;
68178;SDS011;54998;42.656;23.382;2022-11-15T06:11:51;31.98;;;13.38;;
68178;SDS011;54998;42.656;23.382;2022-11-15T06:14:16;35.97;;;12.55;;
68178;SDS011;54998;42.656;23.382;2022-11-15T06:16:42;31.25;;;11.27;;
68178;SDS011;54998;42.656;23.382;2022-11-15T06:19:07;34.55;;;13.02;;
68178;SDS011;54998;42.656;23.382;2022-11-15T06:21:33;35.60;;;14.55;;
68178;SDS011;54998;42.656;23.382;2022-11-15T06:23:58;31.42;;;13.40;;
68178;SDS011;54998;42.656;23.382;2022-11-15T06:26:23;29.48;;;13.10;;
68178;SDS011;54998;42.656;23.382;2022-11-15T06:28:49;30.10;;;12.77;;
68178;SDS011;54998;42.656;23.382;2022-11-15T06:31:14;32.88;;;12.32;;
68178;SDS011;54998;42.656;23.382;2022-11-15T06:33:40;30.30;;;14.05;;
68178;SDS011;54998;42.656;23.382;2022-11-15T06:36:15;33.95;;;14.95;;
68178;SDS011;54998;42.656;23.382;2022-11-15T06:39:01;36.85;;;15.63;;
68178;SDS011;54998;42.656;23.382;2022-11-15T06:41:29;38.03;;;15.05;;
68178;SDS011;54998;42.656;23.382;2022-11-15T06:43:55;34.20;;;15.55;;
68178;SDS011;54998;42.656;23.382;2022-11-15T06:46:22;33.80;;;13.98;;
68178;SDS011;54998;42.656;23.382;2022-11-15T06:48:50;43.53;;;19.83;;
68178;SDS011;54998;42.656;23.382;2022-11-15T06:51:16;46.63;;;18.08;;
68178;SDS011;54998;42.656;23.382;2022-11-15T06:53:41;50.63;;;18.52;;
68178;SDS011;54998;42.656;23.382;2022-11-15T06:56:08;50.85;;;20.70;;
68178;SDS011;54998;42.656;23.382;2022-11-15T06:58:34;50.58;;;20.65;;
68178;SDS011;54998;42.656;23.382;2022-11-15T07:01:01;52.55;;;19.98;;
68178;SDS011;54998;42.656;23.382;2022-11-15T07:03:33;56.92;;;21.98;;
68178;SDS011;54998;42.656;23.382;2022-11-15T07:06:00;49.63;;;20.35;;
68178;SDS011;54998;42.656;23.382;2022-11-15T07:08:27;58.58;;;20.77;;
68178;SDS011;54998;42.656;23.382;2022-11-15T07:10:54;51.92;;;19.98;;
68178;SDS011;54998;42.656;23.382;2022-11-15T07:13:19;54.42;;;19.98;;
68178;SDS011;54998;42.656;23.382;2022-11-15T07:15:49;57.67;;;22.52;;
68178;SDS011;54998;42.656;23.382;2022-11-15T07:18:15;53.65;;;20.83;;
68178;SDS011;54998;42.656;23.382;2022-11-15T07:20:40;53.65;;;20.50;;
68178;SDS011;54998;42.656;23.382;2022-11-15T07:23:05;59.78;;;21.33;;
68178;SDS011;54998;42.656;23.382;2022-11-15T07:25:31;54.33;;;20.80;;
68178;SDS011;54998;42.656;23.382;2022-11-15T07:27:57;42.72;;;19.52;;
68178;SDS011;54998;42.656;23.382;2022-11-15T07:30:23;39.00;;;16.98;;
68178;SDS011;54998;42.656;23.382;2022-11-15T07:32:55;32.47;;;15.15;;
68178;SDS011;54998;42.656;23.382;2022-11-15T07:35:22;36.22;;;14.77;;
68178;SDS011;54998;42.656;23.382;2022-11-15T07:37:58;36.95;;;16.50;;
68178;SDS011;54998;42.656;23.382;2022-11-15T07:40:26;37.50;;;15.48;;
68178;SDS011;54998;42.656;23.382;2022-11-15T07:42:58;41.80;;;18.35;;
68178;SDS011;54998;42.656;23.382;2022-11-15T07:45:24;39.25;;;16.48;;
68178;SDS011;54998;42.656;23.382;2022-11-15T07:47:53;43.22;;;17.02;;
68178;SDS011;54998;42.656;23.382;2022-11-15T07:50:19;35.63;;;15.05;;
68178;SDS011;54998;42.656;23.382;2022-11-15T07:52:45;37.75;;;16.55;;
68178;SDS011;54998;42.656;23.382;2022-11-15T07:55:10;40.45;;;17.75;;
68178;SDS011;54998;42.656;23.382;2022-11-15T07:57:36;39.38;;;17.20;;
68178;SDS011;54998;42.656;23.382;2022-11-15T08:00:03;42.50;;;17.23;;
68178;SDS011;54998;42.656;23.382;2022-11-15T08:02:29;45.00;;;18.75;;
68178;SDS011;54998;42.656;23.382;2022-11-15T08:04:55;55.55;;;24.20;;
68178;SDS011;54998;42.656;23.382;2022-11-15T08:07:20;59.75;;;25.92;;
68178;SDS011;54998;42.656;23.382;2022-11-15T08:09:45;57.90;;;24.15;;
68178;SDS011;54998;42.656;23.382;2022-11-15T08:12:11;66.28;;;26.98;;
68178;SDS011;54998;42.656;23.382;2022-11-15T08:14:36;67.53;;;28.08;;
68178;SDS011;54998;42.656;23.382;2022-11-15T08:17:02;60.90;;;26.00;;
68178;SDS011;54998;42.656;23.382;2022-11-15T08:19:27;61.92;;;23.20;;
68178;SDS011;54998;42.656;23.382;2022-11-15T08:21:52;61.35;;;22.95;;
68178;SDS011;54998;42.656;23.382;2022-11-15T08:24:18;60.47;;;24.77;;
68178;SDS011;54998;42.656;23.382;2022-11-15T08:26:43;55.47;;;24.63;;
68178;SDS011;54998;42.656;23.382;2022-11-15T08:29:09;57.17;;;24.50;;
68178;SDS011;54998;42.656;23.382;2022-11-15T08:31:35;65.32;;;27.42;;
68178;SDS011;54998;42.656;23.382;2022-11-15T08:34:01;56.88;;;25.10;;
68178;SDS011;54998;42.656;23.382;2022-11-15T08:36:28;69.30;;;26.30;;
68178;SDS011;54998;42.656;23.382;2022-11-15T08:38:53;55.05;;;23.58;;
68178;SDS011;54998;42.656;23.382;2022-11-15T08:41:30;54.22;;;22.98;;
68178;SDS011;54998;42.656;23.382;2022-11-15T08:43:58;52.53;;;23.58;;
68178;SDS011;54998;42.656;23.382;2022-11-15T08:46:23;54.47;;;23.73;;
68178;SDS011;54998;42.656;23.382;2022-11-15T08:48:49;62.58;;;24.88;;
68178;SDS011;54998;42.656;23.382;2022-11-15T08:51:14;51.20;;;24.55;;
68178;SDS011;54998;42.656;23.382;2022-11-15T08:53:40;63.40;;;24.58;;
68178;SDS011;54998;42.656;23.382;2022-11-15T08:56:07;54.88;;;25.25;;
68178;SDS011;54998;42.656;23.382;2022-11-15T08:58:34;59.33;;;25.13;;
68178;SDS011;54998;42.656;23.382;2022-11-15T09:00:59;58.97;;;27.05;;
68178;SDS011;54998;42.656;23.382;2022-11-15T09:03:25;55.78;;;27.23;;
68178;SDS011;54998;42.656;23.382;2022-11-15T09:05:57;58.47;;;26.10;;
68178;SDS011;54998;42.656;23.382;2022-11-15T09:10:50;58.83;;;25.70;;
68178;SDS011;54998;42.656;23.382;2022-11-15T09:13:15;53.42;;;25.08;;
68178;SDS011;54998;42.656;23.382;2022-11-15T09:15:41;57.65;;;23.90;;
68178;SDS011;54998;42.656;23.382;2022-11-15T09:18:06;57.20;;;26.83;;
68178;SDS011;54998;42.656;23.382;2022-11-15T09:20:32;57.03;;;26.08;;
68178;SDS011;54998;42.656;23.382;2022-11-15T09:23:01;61.25;;;27.08;;
68178;SDS011;54998;42.656;23.382;2022-11-15T09:25:27;60.55;;;26.95;;
68178;SDS011;54998;42.656;23.382;2022-11-15T09:27:53;61.95;;;27.40;;
68178;SDS011;54998;42.656;23.382;2022-11-15T09:30:18;65.07;;;26.60;;
68178;SDS011;54998;42.656;23.382;2022-11-15T09:32:44;58.63;;;27.15;;
68178;SDS011;54998;42.656;23.382;2022-11-15T09:35:09;66.55;;;28.90;;
68178;SDS011;54998;42.656;23.382;2022-11-15T09:37:34;63.17;;;26.80;;
68178;SDS011;54998;42.656;23.382;2022-11-15T09:40:00;55.30;;;24.13;;
68178;SDS011;54998;42.656;23.382;2022-11-15T09:42:33;62.35;;;27.98;;
68178;SDS011;54998;42.656;23.382;2022-11-15T09:50:33;66.43;;;30.25;;
68178;SDS011;54998;42.656;23.382;2022-11-15T09:53:04;60.90;;;26.85;;
68178;SDS011;54998;42.656;23.382;2022-11-15T10:01:02;59.58;;;27.83;;
68178;SDS011;54998;42.656;23.382;2022-11-15T10:03:37;54.10;;;27.88;;
68178;SDS011;54998;42.656;23.382;2022-11-15T10:06:13;60.15;;;29.50;;
68178;SDS011;54998;42.656;23.382;2022-11-15T10:11:40;53.97;;;27.45;;
68178;SDS011;54998;42.656;23.382;2022-11-15T10:14:17;54.58;;;29.27;;
68178;SDS011;54998;42.656;23.382;2022-11-15T10:27:37;60.22;;;31.50;;
68178;SDS011;54998;42.656;23.382;2022-11-15T10:30:08;64.18;;;31.95;;
68178;SDS011;54998;42.656;23.382;2022-11-15T10:32:36;59.60;;;31.17;;
68178;SDS011;54998;42.656;23.382;2022-11-15T10:35:15;64.40;;;32.47;;
68178;SDS011;54998;42.656;23.382;2022-11-15T10:37:43;67.88;;;33.40;;
68178;SDS011;54998;42.656;23.382;2022-11-15T10:40:16;67.47;;;32.38;;
68178;SDS011;54998;42.656;23.382;2022-11-15T10:42:41;62.30;;;33.22;;
68178;SDS011;54998;42.656;23.382;2022-11-15T10:45:28;61.72;;;32.08;;
68178;SDS011;54998;42.656;23.382;2022-11-15T10:47:59;59.92;;;30.38;;
68178;SDS011;54998;42.656;23.382;2022-11-15T10:50:46;59.53;;;27.58;;
68178;SDS011;54998;42.656;23.382;2022-11-15T10:55:41;59.58;;;30.05;;
68178;SDS011;54998;42.656;23.382;2022-11-15T10:58:30;69.38;;;33.63;;
68178;SDS011;54998;42.656;23.382;2022-11-15T11:01:15;79.68;;;36.33;;
68178;SDS011;54998;42.656;23.382;2022-11-15T11:03:44;74.88;;;34.42;;
68178;SDS011;54998;42.656;23.382;2022-11-15T11:06:22;72.65;;;34.45;;
68178;SDS011;54998;42.656;23.382;2022-11-15T11:09:10;69.93;;;33.75;;
68178;SDS011;54998;42.656;23.382;2022-11-15T11:11:47;69.30;;;33.38;;
68178;SDS011;54998;42.656;23.382;2022-11-15T11:14:21;68.65;;;33.30;;
68178;SDS011;54998;42.656;23.382;2022-11-15T11:16:49;65.13;;;33.25;;
68178;SDS011;54998;42.656;23.382;2022-11-15T11:19:24;66.43;;;33.38;;
68178;SDS011;54998;42.656;23.382;2022-11-15T11:27:59;66.03;;;31.55;;
68178;SDS011;54998;42.656;23.382;2022-11-15T11:45:05;63.30;;;30.85;;
68178;SDS011;54998;42.656;23.382;2022-11-15T11:47:40;61.70;;;30.65;;
68178;SDS011;54998;42.656;23.382;2022-11-15T11:53:09;66.53;;;33.20;;
68178;SDS011;54998;42.656;23.382;2022-11-15T11:55:58;65.13;;;30.63;;
68178;SDS011;54998;42.656;23.382;2022-11-15T11:58:36;63.65;;;31.17;;
68178;SDS011;54998;42.656;23.382;2022-11-15T12:04:03;67.82;;;30.27;;
68178;SDS011;54998;42.656;23.382;2022-11-15T12:09:28;64.53;;;29.15;;
68178;SDS011;54998;42.656;23.382;2022-11-15T12:17:29;70.78;;;31.63;;
68178;SDS011;54998;42.656;23.382;2022-11-15T12:19:57;73.38;;;32.40;;
68178;SDS011;54998;42.656;23.382;2022-11-15T12:25:27;61.13;;;29.17;;
68178;SDS011;54998;42.656;23.382;2022-11-15T12:30:23;64.05;;;29.05;;
68178;SDS011;54998;42.656;23.382;2022-11-15T12:32:58;72.20;;;29.90;;
68178;SDS011;54998;42.656;23.382;2022-11-15T12:35:36;61.08;;;27.38;;
68178;SDS011;54998;42.656;23.382;2022-11-15T12:38:04;68.32;;;27.75;;
68178;SDS011;54998;42.656;23.382;2022-11-15T12:40:35;66.03;;;30.73;;
68178;SDS011;54998;42.656;23.382;2022-11-15T12:43:40;61.45;;;29.83;;
68178;SDS011;54998;42.656;23.382;2022-11-15T12:46:11;62.33;;;27.52;;
68178;SDS011;54998;42.656;23.382;2022-11-15T12:51:08;68.75;;;28.45;;
68178;SDS011;54998;42.656;23.382;2022-11-15T12:53:34;61.20;;;27.27;;
68178;SDS011;54998;42.656;23.382;2022-11-15T13:04:36;67.47;;;31.33;;
68178;SDS011;54998;42.656;23.382;2022-11-15T13:11:54;69.55;;;29.33;;
68178;SDS011;54998;42.656;23.382;2022-11-15T13:17:12;64.82;;;30.63;;
68178;SDS011;54998;42.656;23.382;2022-11-15T13:19:44;67.50;;;30.83;;
68178;SDS011;54998;42.656;23.382;2022-11-15T13:22:27;64.55;;;30.23;;
68178;SDS011;54998;42.656;23.382;2022-11-15T13:33:14;63.65;;;29.05;;
68178;SDS011;54998;42.656;23.382;2022-11-15T13:35:47;64.30;;;30.38;;
68178;SDS011;54998;42.656;23.382;2022-11-15T13:38:25;64.90;;;27.30;;
68178;SDS011;54998;42.656;23.382;2022-11-15T13:40:53;67.90;;;28.95;;
68178;SDS011;54998;42.656;23.382;2022-11-15T13:46:09;65.38;;;30.60;;
68178;SDS011;54998;42.656;23.382;2022-11-15T13:48:37;57.78;;;26.70;;
68178;SDS011;54998;42.656;23.382;2022-11-15T13:51:14;62.30;;;27.80;;
68178;SDS011;54998;42.656;23.382;2022-11-15T13:53:45;62.95;;;29.35;;
68178;SDS011;54998;42.656;23.382;2022-11-15T13:56:14;65.72;;;30.35;;
68178;SDS011;54998;42.656;23.382;2022-11-15T13:58:41;69.43;;;30.20;;
68178;SDS011;54998;42.656;23.382;2022-11-15T14:01:06;61.05;;;29.35;;
68178;SDS011;54998;42.656;23.382;2022-11-15T14:03:42;59.55;;;26.70;;
68178;SDS011;54998;42.656;23.382;2022-11-15T14:06:15;62.58;;;27.98;;
68178;SDS011;54998;42.656;23.382;2022-11-15T14:09:15;62.65;;;26.90;;
68178;SDS011;54998;42.656;23.382;2022-11-15T14:11:54;65.95;;;31.35;;
68178;SDS011;54998;42.656;23.382;2022-11-15T14:14:22;69.13;;;28.92;;
68178;SDS011;54998;42.656;23.382;2022-11-15T14:16:57;66.75;;;31.83;;
68178;SDS011;54998;42.656;23.382;2022-11-15T14:24:45;67.40;;;28.75;;
68178;SDS011;54998;42.656;23.382;2022-11-15T14:27:16;61.17;;;28.40;;
68178;SDS011;54998;42.656;23.382;2022-11-15T14:29:45;66.25;;;28.17;;
68178;SDS011;54998;42.656;23.382;2022-11-15T14:35:09;70.25;;;30.77;;
68178;SDS011;54998;42.656;23.382;2022-11-15T14:37:39;67.63;;;30.65;;
68178;SDS011;54998;42.656;23.382;2022-11-15T14:40:05;67.60;;;30.63;;
68178;SDS011;54998;42.656;23.382;2022-11-15T14:42:32;72.05;;;29.75;;
68178;SDS011;54998;42.656;23.382;2022-11-15T14:45:44;76.03;;;32.55;;
68178;SDS011;54998;42.656;23.382;2022-11-15T14:48:10;81.22;;;35.45;;
68178;SDS011;54998;42.656;23.382;2022-11-15T14:50:35;86.93;;;37.17;;
68178;SDS011;54998;42.656;23.382;2022-11-15T14:53:01;98.53;;;42.75;;
68178;SDS011;54998;42.656;23.382;2022-11-15T14:55:29;95.28;;;44.28;;
68178;SDS011;54998;42.656;23.382;2022-11-15T14:57:57;94.47;;;47.10;;
68178;SDS011;54998;42.656;23.382;2022-11-15T15:00:23;100.43;;;46.78;;
68178;SDS011;54998;42.656;23.382;2022-11-15T15:02:49;98.60;;;48.03;;
68178;SDS011;54998;42.656;23.382;2022-11-15T15:05:22;99.70;;;42.03;;
68178;SDS011;54998;42.656;23.382;2022-11-15T15:07:49;100.70;;;47.97;;
68178;SDS011;54998;42.656;23.382;2022-11-15T15:10:16;104.03;;;47.80;;
68178;SDS011;54998;42.656;23.382;2022-11-15T15:12:43;96.05;;;43.03;;
68178;SDS011;54998;42.656;23.382;2022-11-15T15:15:12;93.50;;;40.78;;
68178;SDS011;54998;42.656;23.382;2022-11-15T15:17:43;86.13;;;38.33;;
68178;SDS011;54998;42.656;23.382;2022-11-15T15:20:09;86.22;;;41.30;;
68178;SDS011;54998;42.656;23.382;2022-11-15T15:22:35;88.78;;;37.08;;
68178;SDS011;54998;42.656;23.382;2022-11-15T15:25:02;86.45;;;40.10;;
68178;SDS011;54998;42.656;23.382;2022-11-15T15:27:29;88.45;;;39.40;;
68178;SDS011;54998;42.656;23.382;2022-11-15T15:29:54;88.03;;;37.30;;
68178;SDS011;54998;42.656;23.382;2022-11-15T15:32:20;96.35;;;42.83;;
68178;SDS011;54998;42.656;23.382;2022-11-15T15:34:46;91.50;;;42.03;;
68178;SDS011;54998;42.656;23.382;2022-11-15T15:39:51;93.22;;;41.42;;
68178;SDS011;54998;42.656;23.382;2022-11-15T15:42:20;94.25;;;42.92;;
68178;SDS011;54998;42.656;23.382;2022-11-15T15:44:46;98.43;;;44.85;;
68178;SDS011;54998;42.656;23.382;2022-11-15T15:47:16;104.72;;;42.83;;
68178;SDS011;54998;42.656;23.382;2022-11-15T15:49:47;99.70;;;42.53;;
68178;SDS011;54998;42.656;23.382;2022-11-15T15:52:14;94.32;;;42.15;;
68178;SDS011;54998;42.656;23.382;2022-11-15T15:54:39;102.28;;;44.58;;
68178;SDS011;54998;42.656;23.382;2022-11-15T15:57:06;96.75;;;41.92;;
68178;SDS011;54998;42.656;23.382;2022-11-15T15:59:32;94.03;;;39.60;;
68178;SDS011;54998;42.656;23.382;2022-11-15T16:01:58;90.60;;;41.42;;
68178;SDS011;54998;42.656;23.382;2022-11-15T16:04:24;100.32;;;43.42;;
68178;SDS011;54998;42.656;23.382;2022-11-15T16:06:50;103.72;;;47.22;;
68178;SDS011;54998;42.656;23.382;2022-11-15T16:09:18;97.00;;;45.97;;
68178;SDS011;54998;42.656;23.382;2022-11-15T16:12:04;106.70;;;47.50;;
68178;SDS011;54998;42.656;23.382;2022-11-15T16:14:30;102.45;;;47.22;;
68178;SDS011;54998;42.656;23.382;2022-11-15T16:16:56;105.30;;;49.42;;
68178;SDS011;54998;42.656;23.382;2022-11-15T16:19:21;108.03;;;51.58;;
68178;SDS011;54998;42.656;23.382;2022-11-15T16:21:47;106.93;;;46.17;;
68178;SDS011;54998;42.656;23.382;2022-11-15T16:24:12;105.22;;;45.58;;
68178;SDS011;54998;42.656;23.382;2022-11-15T16:26:38;99.90;;;41.97;;
68178;SDS011;54998;42.656;23.382;2022-11-15T16:29:03;102.60;;;44.70;;
68178;SDS011;54998;42.656;23.382;2022-11-15T16:31:29;101.72;;;42.17;;
68178;SDS011;54998;42.656;23.382;2022-11-15T16:33:54;101.47;;;45.00;;
68178;SDS011;54998;42.656;23.382;2022-11-15T16:36:21;97.75;;;41.65;;
68178;SDS011;54998;42.656;23.382;2022-11-15T16:38:48;89.97;;;41.83;;
68178;SDS011;54998;42.656;23.382;2022-11-15T16:41:14;95.03;;;42.40;;
68178;SDS011;54998;42.656;23.382;2022-11-15T16:43:45;95.18;;;39.38;;
68178;SDS011;54998;42.656;23.382;2022-11-15T16:46:16;96.53;;;42.17;;